Time;durP1;ratioP1;P1;durP2;ratioP2;P2;SDS_P1;SDS_P2;PMS_P1;PMS_P2;Temp;Humidity;BMP_temperature;BMP_pressure;BME280_temperature;BME280_humidity;BME280_pressure;Samples;Min_cycle;Max_cycle;Signal;HPM_P1;HPM_P2
2021/04/26 00:01:41;;;;;;;8.35;3.90;;;;;;;6.54;50.44;96467.94;5068897;28;20048;-67
2021/04/26 00:04:07;;;;;;;6.97;4.53;;;;;;;6.54;51.31;96478.78;5069412;28;20044;-65
2021/04/26 00:06:33;;;;;;;10.45;4.35;;;;;;;6.52;50.57;96478.25;5073033;28;20049;-67
2021/04/26 00:08:59;;;;;;;10.88;4.85;;;;;;;6.52;50.69;96483.69;5073075;28;20048;-65
2021/04/26 00:11:26;;;;;;;7.88;4.45;;;;;;;6.50;50.41;96472.31;5072067;28;20040;-65
2021/04/26 00:13:52;;;;;;;11.73;4.68;;;;;;;6.48;51.28;96466.41;5072932;28;20048;-66
2021/04/26 00:16:18;;;;;;;8.90;4.10;;;;;;;6.45;51.19;96471.56;5072053;28;20097;-67
2021/04/26 00:18:44;;;;;;;9.57;4.55;;;;;;;6.44;51.83;96468.06;5072789;28;20045;-65
2021/04/26 00:21:10;;;;;;;8.63;4.82;;;;;;;6.37;51.73;96456.81;5072614;28;20657;-65
2021/04/26 00:23:36;;;;;;;12.73;4.95;;;;;;;6.30;52.59;96453.63;5072461;28;20135;-65
2021/04/26 00:26:02;;;;;;;8.68;4.43;;;;;;;6.26;52.27;96460.69;5072650;28;20067;-65
2021/04/26 00:28:29;;;;;;;6.80;4.18;;;;;;;6.26;51.91;96455.28;5071650;28;20075;-65
2021/04/26 00:30:55;;;;;;;8.20;4.45;;;;;;;6.24;52.35;96457.47;5073074;28;20056;-65
2021/04/26 00:33:21;;;;;;;9.98;4.30;;;;;;;6.24;52.89;96446.66;5071127;28;20234;-66
2021/04/26 00:35:47;;;;;;;8.73;4.28;;;;;;;6.26;52.68;96449.88;5072798;28;20063;-65
2021/04/26 00:38:13;;;;;;;6.82;4.22;;;;;;;6.25;52.06;96448.25;5071503;28;20056;-65
2021/04/26 00:40:39;;;;;;;10.10;4.60;;;;;;;6.25;51.64;96442.84;5072597;28;20045;-65
2021/04/26 00:43:05;;;;;;;8.05;4.07;;;;;;;6.25;51.43;96432.03;5071628;28;20114;-65
2021/04/26 00:45:32;;;;;;;8.23;3.80;;;;;;;6.30;51.55;96442.00;5072128;28;20044;-65
2021/04/26 00:47:58;;;;;;;8.80;4.45;;;;;;;6.32;51.21;96443.34;5072427;28;20052;-65
2021/04/26 00:50:26;;;;;;;7.80;3.63;;;;;;;6.33;51.61;96434.13;5071327;28;20487;-66
2021/04/26 00:52:53;;;;;;;6.82;3.35;;;;;;;6.35;50.75;96428.41;5072598;28;20048;-66
2021/04/26 00:55:23;;;;;;;8.07;4.30;;;;;;;6.36;51.51;96433.53;5070900;28;20458;-65
2021/04/26 00:57:49;;;;;;;7.32;4.05;;;;;;;6.36;50.75;96433.53;5072468;28;20052;-65
2021/04/26 01:00:16;;;;;;;7.68;4.30;;;;;;;6.38;50.68;96423.25;5070845;28;20059;-66
2021/04/26 01:02:43;;;;;;;6.70;4.50;;;;;;;6.39;51.17;96421.34;5072083;28;20122;-65
2021/04/26 01:05:12;;;;;;;6.47;3.67;;;;;;;6.39;51.16;96416.72;5071130;28;20044;-66
2021/04/26 01:07:39;;;;;;;7.25;3.85;;;;;;;6.35;50.50;96413.00;5071794;28;20055;-66
2021/04/26 01:10:08;;;;;;;7.75;4.25;;;;;;;6.36;50.43;96413.78;5071432;28;20060;-66
2021/04/26 01:12:42;;;;;;;7.78;4.10;;;;;;;6.33;51.00;96398.97;5071375;28;20411;-65
2021/04/26 01:15:12;;;;;;;13.52;4.28;;;;;;;6.26;51.34;96395.78;5071114;28;20511;-66
2021/04/26 01:17:43;;;;;;;7.75;4.30;;;;;;;6.26;51.87;96390.38;5070940;28;20048;-65
2021/04/26 01:20:36;;;;;;;7.53;4.40;;;;;;;6.21;52.21;96387.75;5071783;28;20419;-65
2021/04/26 01:23:22;;;;;;;8.68;4.50;;;;;;;6.17;51.45;96387.53;5070969;28;20052;-66
2021/04/26 01:25:49;;;;;;;9.30;3.95;;;;;;;6.14;51.35;96387.28;5071026;28;20098;-67
2021/04/26 01:28:31;;;;;;;9.43;4.25;;;;;;;6.12;51.74;96381.38;5070291;28;20052;-67
2021/04/26 01:31:04;;;;;;;6.00;3.47;;;;;;;6.09;52.16;96374.63;5070487;28;20051;-65
2021/04/26 01:33:36;;;;;;;7.93;4.22;;;;;;;6.07;52.66;96376.84;5071561;28;20068;-65
2021/04/26 01:36:07;;;;;;;7.80;3.92;;;;;;;6.09;52.15;96369.22;5070347;28;20056;-65
2021/04/26 01:38:37;;;;;;;8.35;4.20;;;;;;;5.98;52.58;96368.53;5071167;28;20052;-65
2021/04/26 01:41:04;;;;;;;6.97;4.15;;;;;;;5.95;53.60;96363.72;5070559;28;20059;-67
2021/04/26 01:43:30;;;;;;;7.57;4.60;;;;;;;5.96;53.29;96359.13;5070873;28;20098;-66
2021/04/26 01:45:59;;;;;;;8.00;4.22;;;;;;;5.94;52.39;96355.88;5071363;28;20055;-65
2021/04/26 01:48:27;;;;;;;10.27;4.72;;;;;;;5.98;53.46;96363.13;5069654;28;20040;-67
2021/04/26 01:50:56;;;;;;;9.18;4.72;;;;;;;5.95;52.79;96358.31;5075812;28;20048;-65
2021/04/26 01:53:22;;;;;;;9.73;4.32;;;;;;;5.96;53.02;96370.75;5090086;28;20048;-65
2021/04/26 01:55:49;;;;;;;11.57;5.05;;;;;;;5.97;53.28;96369.66;5091857;28;20059;-65
2021/04/26 01:58:17;;;;;;;10.15;4.55;;;;;;;5.97;53.31;96364.22;5076244;28;20052;-67
2021/04/26 02:00:43;;;;;;;9.77;4.72;;;;;;;5.95;53.63;96355.63;5070828;28;20070;-65
2021/04/26 02:03:10;;;;;;;8.90;5.40;;;;;;;5.97;53.31;96352.63;5070058;28;20556;-65
2021/04/26 02:05:37;;;;;;;9.27;4.40;;;;;;;5.95;53.49;96357.50;5070665;28;20041;-66
2021/04/26 02:08:05;;;;;;;13.13;4.63;;;;;;;5.94;53.35;96351.28;5070750;28;20052;-66
2021/04/26 02:10:32;;;;;;;8.13;4.90;;;;;;;5.94;53.29;96343.19;5070334;28;20052;-65
2021/04/26 02:13:00;;;;;;;8.88;4.85;;;;;;;5.92;53.50;96334.56;5070936;28;20048;-65
2021/04/26 02:15:30;;;;;;;11.10;4.30;;;;;;;5.97;52.48;96337.22;5069088;28;20036;-65
2021/04/26 02:17:56;;;;;;;10.23;5.05;;;;;;;5.95;53.29;96336.69;5070972;28;20049;-65
2021/04/26 02:20:22;;;;;;;10.65;5.13;;;;;;;5.92;52.61;96334.56;5069507;28;20045;-65
2021/04/26 02:22:50;;;;;;;8.60;4.60;;;;;;;5.95;53.13;96331.28;5070740;28;20047;-65
2021/04/26 02:25:17;;;;;;;7.65;4.68;;;;;;;5.94;52.81;96324.25;5069471;28;20053;-65
2021/04/26 02:27:45;;;;;;;9.60;4.70;;;;;;;5.97;53.10;96322.88;5077382;28;20056;-65
2021/04/26 02:30:13;;;;;;;10.93;4.50;;;;;;;5.92;52.62;96315.66;5089944;28;20044;-65
2021/04/26 02:32:48;;;;;;;23.83;6.13;;;;;;;5.93;52.82;96319.16;5090163;28;20052;-65
2021/04/26 02:35:16;;;;;;;9.00;4.43;;;;;;;5.91;52.42;96303.22;5090476;28;20055;-65
2021/04/26 02:37:49;;;;;;;11.63;4.97;;;;;;;5.94;52.47;96308.03;5089888;28;20048;-65
2021/04/26 02:40:18;;;;;;;14.88;4.93;;;;;;;5.95;52.78;96309.69;5090556;28;20056;-65
2021/04/26 02:42:46;;;;;;;7.63;4.40;;;;;;;5.94;52.13;96309.94;5090104;28;20102;-65
2021/04/26 02:45:15;;;;;;;8.32;4.70;;;;;;;5.97;52.41;96318.28;5089411;28;20494;-65
2021/04/26 02:47:44;;;;;;;10.07;5.00;;;;;;;5.94;52.96;96310.75;5090097;28;20572;-65
2021/04/26 02:50:17;;;;;;;9.43;4.70;;;;;;;5.97;52.57;96318.28;5088926;28;20716;-65
2021/04/26 02:52:46;;;;;;;10.65;4.32;;;;;;;5.99;51.88;96320.69;5090610;28;20052;-67
2021/04/26 02:55:14;;;;;;;9.73;4.72;;;;;;;5.98;52.10;96319.88;5089043;28;20101;-67
2021/04/26 02:57:41;;;;;;;9.38;4.90;;;;;;;5.92;51.22;96321.06;5081607;28;20049;-67
2021/04/26 03:00:09;;;;;;;10.05;4.60;;;;;;;5.85;51.43;96327.88;5068587;28;20491;-67
2021/04/26 03:02:37;;;;;;;10.38;5.25;;;;;;;5.80;51.99;96320.63;5070432;28;20048;-67
2021/04/26 03:05:05;;;;;;;10.65;5.40;;;;;;;5.77;51.99;96323.91;5069240;28;20060;-67
2021/04/26 03:07:34;;;;;;;10.00;5.35;;;;;;;5.76;52.36;96316.88;5069760;28;20045;-67
2021/04/26 03:10:01;;;;;;;8.98;5.00;;;;;;;5.75;51.78;96315.28;5052348;28;20163;-65
2021/04/26 03:12:31;;;;;;;8.82;5.50;;;;;;;5.74;52.21;96310.94;5069232;28;20052;-67
2021/04/26 03:14:59;;;;;;;10.60;5.13;;;;;;;5.75;53.22;96309.88;5070255;28;20044;-65
2021/04/26 03:17:26;;;;;;;10.43;5.47;;;;;;;5.75;53.47;96307.97;5068656;28;20419;-67
2021/04/26 03:19:52;;;;;;;13.55;5.20;;;;;;;5.71;53.03;96314.25;5070439;28;20049;-65
2021/04/26 03:22:19;;;;;;;11.90;5.93;;;;;;;5.71;53.56;96314.25;5084662;28;20495;-67
2021/04/26 03:24:45;;;;;;;8.73;6.07;;;;;;;5.71;53.43;96303.44;5090205;28;20105;-67
2021/04/26 03:27:12;;;;;;;9.57;5.63;;;;;;;5.70;53.64;96301.84;5087686;28;20044;-65
2021/04/26 03:29:38;;;;;;;9.25;5.43;;;;;;;5.69;53.49;96294.78;5090010;28;20044;-67
2021/04/26 03:32:06;;;;;;;13.75;5.68;;;;;;;5.62;54.01;96294.34;5089306;28;20105;-65
2021/04/26 03:34:34;;;;;;;12.52;5.38;;;;;;;5.53;53.08;96302.28;5089555;28;20079;-65
2021/04/26 03:37:01;;;;;;;9.50;5.25;;;;;;;5.49;53.08;96296.66;5089963;28;20491;-65
2021/04/26 03:39:27;;;;;;;8.55;5.38;;;;;;;5.49;53.53;96296.66;5090979;28;20534;-65
2021/04/26 03:41:54;;;;;;;13.40;5.82;;;;;;;5.52;53.96;96294.47;5094234;28;20055;-66
2021/04/26 03:44:20;;;;;;;9.07;5.05;;;;;;;5.53;53.94;96290.66;5092634;28;20047;-65
2021/04/26 03:46:56;;;;;;;9.52;5.30;;;;;;;5.47;52.77;96298.81;5094140;28;20048;-65
2021/04/26 03:49:24;;;;;;;11.25;5.65;;;;;;;5.45;52.94;96290.22;5092577;28;20469;-65
2021/04/26 03:51:52;;;;;;;13.50;5.60;;;;;;;5.41;54.19;96291.88;5093513;28;20040;-65
2021/04/26 03:54:18;;;;;;;12.68;6.35;;;;;;;5.40;53.72;96287.56;5092870;28;20101;-65
2021/04/26 03:56:44;;;;;;;14.00;5.80;;;;;;;5.39;53.21;96277.06;5091924;28;20082;-65
2021/04/26 03:59:10;;;;;;;9.32;5.22;;;;;;;5.35;54.18;96279.53;5072996;28;20048;-65
2021/04/26 04:01:36;;;;;;;11.27;5.47;;;;;;;5.31;54.02;96273.06;5072219;28;20053;-65
2021/04/26 04:04:04;;;;;;;9.30;5.65;;;;;;;5.26;54.78;96270.44;5073016;28;20094;-66
2021/04/26 04:06:31;;;;;;;11.52;5.57;;;;;;;5.21;54.63;96273.97;5072134;28;20670;-65
2021/04/26 04:08:57;;;;;;;11.07;5.40;;;;;;;5.18;54.94;96281.88;5073354;28;20110;-65
2021/04/26 04:11:24;;;;;;;11.98;5.95;;;;;;;5.08;55.58;96276.56;5071848;28;20044;-65
2021/04/26 04:13:50;;;;;;;14.85;6.00;;;;;;;5.04;55.23;96279.00;5072876;28;20044;-65
2021/04/26 04:16:16;;;;;;;12.52;6.03;;;;;;;4.94;55.25;96273.72;5072087;28;20044;-65
2021/04/26 04:18:42;;;;;;;12.82;5.70;;;;;;;4.88;54.81;96272.94;5072831;28;20044;-65
2021/04/26 04:21:08;;;;;;;10.55;6.05;;;;;;;4.88;56.34;96270.25;5078663;28;20138;-65
2021/04/26 04:23:35;;;;;;;9.30;5.60;;;;;;;4.84;56.11;96266.50;5092705;28;20051;-65
2021/04/26 04:26:01;;;;;;;10.98;6.47;;;;;;;4.77;56.77;96263.34;5093224;28;20048;-64
2021/04/26 04:28:30;;;;;;;11.60;6.07;;;;;;;4.70;56.99;96263.69;5090400;28;20093;-65
2021/04/26 04:30:56;;;;;;;14.13;5.60;;;;;;;4.64;56.49;96263.97;5093110;28;20055;-65
2021/04/26 04:33:22;;;;;;;13.05;6.22;;;;;;;4.65;56.34;96255.63;5091734;28;20051;-66
2021/04/26 04:35:48;;;;;;;10.68;6.75;;;;;;;4.71;57.05;96265.28;5093095;28;20450;-65
2021/04/26 04:38:14;;;;;;;12.23;6.32;;;;;;;4.74;57.26;96252.31;5091782;28;20075;-65
2021/04/26 04:40:41;;;;;;;10.07;6.43;;;;;;;4.79;56.45;96250.38;5092975;28;20757;-65
2021/04/26 04:43:07;;;;;;;17.33;6.95;;;;;;;4.83;57.70;96251.41;5092130;28;20094;-66
2021/04/26 04:45:33;;;;;;;19.75;6.63;;;;;;;4.83;56.74;96240.63;5092411;28;20078;-65
2021/04/26 04:48:00;;;;;;;14.38;6.63;;;;;;;4.86;56.70;96237.38;5092443;28;20402;-65
2021/04/26 04:50:26;;;;;;;11.80;5.57;;;;;;;4.92;56.61;96238.91;5090661;28;20101;-65
2021/04/26 04:52:52;;;;;;;12.23;6.15;;;;;;;4.97;55.88;96240.78;5092889;28;20491;-65
2021/04/26 04:55:18;;;;;;;11.73;6.78;;;;;;;5.00;56.31;96229.38;5091094;28;20063;-66
2021/04/26 04:57:45;;;;;;;11.60;5.78;;;;;;;5.00;55.87;96232.09;5083064;28;20060;-65
2021/04/26 05:00:12;;;;;;;13.95;5.97;;;;;;;5.03;56.45;96233.44;5070855;28;20102;-65
2021/04/26 05:02:38;;;;;;;9.65;5.63;;;;;;;5.06;55.79;96222.84;5071898;28;20052;-65
2021/04/26 05:05:05;;;;;;;10.35;5.70;;;;;;;5.07;56.54;96234.47;5071091;28;20435;-66
2021/04/26 05:07:31;;;;;;;14.13;6.40;;;;;;;5.08;56.23;96242.28;5071904;28;20056;-65
2021/04/26 05:09:57;;;;;;;12.35;6.40;;;;;;;5.15;55.97;96239.22;5071888;28;20118;-65
2021/04/26 05:12:24;;;;;;;10.48;5.72;;;;;;;5.19;54.99;96242.97;5071186;28;20067;-65
2021/04/26 05:14:51;;;;;;;12.43;6.40;;;;;;;5.24;55.28;96246.41;5071744;28;20514;-65
2021/04/26 05:17:17;;;;;;;11.32;5.68;;;;;;;5.31;54.25;96246.06;5070451;28;20151;-66
2021/04/26 05:19:44;;;;;;;7.95;5.30;;;;;;;5.41;55.32;96245.16;5072213;28;20053;-65
2021/04/26 05:22:11;;;;;;;9.63;5.78;;;;;;;5.49;55.21;96247.25;5085323;28;20090;-66
2021/04/26 05:24:37;;;;;;;9.63;5.93;;;;;;;5.58;55.04;96255.50;5092259;28;20067;-65
2021/04/26 05:27:04;;;;;;;8.93;5.95;;;;;;;5.61;53.91;96260.34;5089312;28;20036;-66
2021/04/26 05:29:30;;;;;;;11.32;5.70;;;;;;;5.67;54.00;96253.78;5091372;28;20094;-65
2021/04/26 05:31:57;;;;;;;9.02;5.40;;;;;;;5.72;53.08;96249.09;5091174;28;20055;-65
2021/04/26 05:34:23;;;;;;;10.70;5.72;;;;;;;5.78;53.77;96257.94;5091145;28;20510;-65
2021/04/26 05:36:49;;;;;;;10.25;5.22;;;;;;;5.80;52.79;96268.50;5091680;28;20410;-65
2021/04/26 05:39:15;;;;;;;13.80;5.75;;;;;;;5.83;52.80;96265.19;5090548;28;20036;-65
2021/04/26 05:41:41;;;;;;;10.00;4.72;;;;;;;5.86;52.28;96265.44;5092097;28;20047;-65
2021/04/26 05:44:07;;;;;;;13.30;6.25;;;;;;;5.89;52.50;96266.72;5090834;28;20048;-66
2021/04/26 05:46:33;;;;;;;12.75;5.50;;;;;;;5.93;52.45;96257.78;5092126;28;20051;-65
2021/04/26 05:49:00;;;;;;;13.32;5.95;;;;;;;5.99;53.46;96264.72;5089862;28;20048;-65
2021/04/26 05:51:26;;;;;;;11.38;5.72;;;;;;;6.06;52.59;96255.47;5090660;28;20063;-65
2021/04/26 05:53:52;;;;;;;14.77;5.07;;;;;;;6.14;53.75;96257.53;5090840;28;20044;-65
2021/04/26 05:56:18;;;;;;;13.90;5.82;;;;;;;6.13;52.15;96251.31;5090603;28;20097;-65
2021/04/26 05:58:44;;;;;;;12.50;5.45;;;;;;;6.15;52.46;96251.00;5072970;28;20059;-65
2021/04/26 06:01:10;;;;;;;12.10;5.45;;;;;;;6.24;51.89;96251.97;5069961;28;20044;-68
2021/04/26 06:03:36;;;;;;;10.50;5.35;;;;;;;6.26;52.33;96257.88;5070074;28;20132;-68
2021/04/26 06:06:03;;;;;;;10.80;4.68;;;;;;;6.31;51.64;96249.69;5068956;28;20063;-69
2021/04/26 06:08:29;;;;;;;8.65;5.03;;;;;;;6.34;51.07;96257.22;5071162;28;20407;-69
2021/04/26 06:10:56;;;;;;;9.77;4.97;;;;;;;6.35;50.82;96258.03;5069629;28;20406;-68
2021/04/26 06:13:22;;;;;;;8.73;4.95;;;;;;;6.36;50.21;96257.72;5070919;28;20056;-69
2021/04/26 06:15:48;;;;;;;10.50;5.25;;;;;;;6.31;50.36;96249.69;5070197;28;20051;-69
2021/04/26 06:18:17;;;;;;;9.43;4.97;;;;;;;6.39;51.49;96250.94;5070308;28;20595;-69
2021/04/26 06:20:45;;;;;;;15.10;6.93;;;;;;;6.43;50.46;96249.28;5073433;28;20047;-69
2021/04/26 06:23:13;;;;;;;9.05;5.22;;;;;;;6.49;51.01;96246.19;5090230;28;20043;-69
2021/04/26 06:25:40;;;;;;;8.88;4.75;;;;;;;6.60;50.99;96251.44;5091002;28;20044;-69
2021/04/26 06:28:07;;;;;;;8.25;4.45;;;;;;;6.62;50.13;96241.13;5077867;28;20060;-69
2021/04/26 06:30:33;;;;;;;10.38;4.93;;;;;;;6.63;48.92;96237.31;5070159;28;20052;-69
2021/04/26 06:32:59;;;;;;;10.35;4.95;;;;;;;6.65;49.55;96240.53;5069696;28;20040;-69
2021/04/26 06:35:26;;;;;;;12.15;5.38;;;;;;;6.72;50.07;96241.75;5070151;28;20502;-69
2021/04/26 06:37:52;;;;;;;8.32;4.55;;;;;;;6.83;49.54;96250.50;5069853;28;20055;-68
2021/04/26 06:40:19;;;;;;;8.32;4.88;;;;;;;6.95;49.26;96253.56;5070207;28;20052;-69
2021/04/26 06:42:45;;;;;;;13.07;4.72;;;;;;;7.08;49.40;96251.97;5070282;28;20045;-69
2021/04/26 06:45:13;;;;;;;8.65;4.72;;;;;;;7.22;49.52;96260.13;5069680;28;20059;-69
2021/04/26 06:47:39;;;;;;;7.35;4.70;;;;;;;7.38;48.43;96257.94;5052323;28;20052;-69
2021/04/26 06:50:06;;;;;;;7.28;4.50;;;;;;;7.45;48.01;96258.34;5069570;28;20526;-69
2021/04/26 06:52:32;;;;;;;8.95;4.95;;;;;;;7.60;48.08;96266.19;5088634;28;20048;-70
2021/04/26 06:54:59;;;;;;;8.35;4.60;;;;;;;7.67;47.60;96263.06;5090015;28;20048;-69
2021/04/26 06:57:26;;;;;;;15.90;5.30;;;;;;;7.82;48.04;96263.56;5083715;28;20041;-68
2021/04/26 06:59:52;;;;;;;13.48;4.90;;;;;;;7.98;48.27;96261.34;5069638;28;20516;-69
2021/04/26 07:02:18;;;;;;;14.02;4.65;;;;;;;8.15;48.46;96266.16;5070013;28;20068;-69
2021/04/26 07:04:44;;;;;;;7.15;4.22;;;;;;;8.29;48.13;96266.09;5069949;28;20072;-69
2021/04/26 07:07:10;;;;;;;8.65;4.70;;;;;;;8.48;48.58;96263.28;5052267;28;20047;-69
2021/04/26 07:09:36;;;;;;;9.57;4.95;;;;;;;8.57;45.68;96258.75;5070070;28;20147;-68
2021/04/26 07:12:02;;;;;;;9.05;4.88;;;;;;;8.65;46.10;96255.28;5069717;28;20123;-69
2021/04/26 07:14:29;;;;;;;7.97;4.43;;;;;;;8.75;45.55;96252.31;5072336;28;20040;-69
2021/04/26 07:16:55;;;;;;;10.85;4.88;;;;;;;8.89;47.36;96246.84;5073796;28;20444;-69
2021/04/26 07:19:21;;;;;;;7.38;4.10;;;;;;;9.04;46.02;96242.94;5074145;28;20051;-69
2021/04/26 07:21:48;;;;;;;8.25;4.28;;;;;;;9.11;44.29;96249.53;5067134;28;20442;-69
2021/04/26 07:24:14;;;;;;;6.78;3.90;;;;;;;9.21;43.64;96253.09;5094649;28;20070;-69
2021/04/26 07:26:40;;;;;;;7.85;4.53;;;;;;;9.24;43.23;96242.41;5093076;28;20044;-69
2021/04/26 07:29:06;;;;;;;8.60;4.72;;;;;;;9.39;44.24;96239.25;5073663;28;20083;-69
2021/04/26 07:31:33;;;;;;;8.88;4.30;;;;;;;9.56;44.07;96243.19;5073620;28;20048;-70
2021/04/26 07:33:59;;;;;;;8.95;4.10;;;;;;;9.73;42.82;96232.38;5073654;28;20045;-69
2021/04/26 07:36:24;;;;;;;5.93;4.00;;;;;;;9.90;44.79;96231.63;5073256;28;20047;-69
2021/04/26 07:38:50;;;;;;;8.40;4.40;;;;;;;10.07;42.49;96237.09;5073727;28;20056;-69
2021/04/26 07:41:17;;;;;;;9.65;4.60;;;;;;;10.46;41.87;96238.13;5073584;28;20045;-69
2021/04/26 07:43:43;;;;;;;6.38;4.00;;;;;;;11.17;42.21;96240.47;5072986;28;20064;-69
2021/04/26 07:46:09;;;;;;;10.52;4.38;;;;;;;12.06;40.06;96243.34;5091722;28;20066;-69
2021/04/26 07:48:38;;;;;;;8.05;4.40;;;;;;;13.06;38.56;96242.44;5093046;28;20062;-73
2021/04/26 07:51:04;;;;;;;7.55;3.95;;;;;;;13.81;36.47;96229.38;5093860;28;20048;-71
2021/04/26 07:53:31;;;;;;;6.38;3.53;;;;;;;14.81;35.27;96246.16;5093055;28;20082;-72
2021/04/26 07:55:57;;;;;;;7.32;3.80;;;;;;;15.85;34.26;96241.53;5093577;28;20071;-72
2021/04/26 07:58:23;;;;;;;6.22;3.78;;;;;;;16.83;30.88;96246.16;5077801;28;20044;-72
2021/04/26 08:00:49;;;;;;;9.32;4.32;;;;;;;17.47;28.64;96239.16;5073156;28;20068;-72
2021/04/26 08:03:16;;;;;;;5.43;3.58;;;;;;;17.59;28.08;96231.88;5072534;28;20056;-72
2021/04/26 08:05:43;;;;;;;10.90;3.80;;;;;;;17.87;29.27;96234.38;5073063;28;20048;-72
2021/04/26 08:08:09;;;;;;;7.70;4.10;;;;;;;18.01;29.10;96234.63;5072847;28;20052;-72
2021/04/26 08:10:35;;;;;;;11.43;4.00;;;;;;;18.45;27.19;96229.38;5072703;28;20063;-72
2021/04/26 08:13:01;;;;;;;8.48;4.03;;;;;;;18.63;28.52;96228.81;5072694;28;20102;-71
2021/04/26 08:15:27;;;;;;;9.35;4.35;;;;;;;18.95;26.29;96235.59;5072439;28;20633;-72
2021/04/26 08:17:53;;;;;;;9.50;4.47;;;;;;;19.13;27.40;96235.03;5073448;28;20068;-72
2021/04/26 08:20:20;;;;;;;13.30;3.67;;;;;;;19.07;25.55;96234.56;5083671;28;20044;-72
2021/04/26 08:22:47;;;;;;;9.40;4.28;;;;;;;19.31;27.15;96230.47;5092881;28;20068;-72
2021/04/26 08:25:13;;;;;;;12.35;4.15;;;;;;;19.67;26.44;96237.19;5090660;28;20044;-71
2021/04/26 08:27:39;;;;;;;10.38;4.25;;;;;;;20.04;26.14;96231.63;5083612;28;20052;-72
2021/04/26 08:30:07;;;;;;;10.10;4.35;;;;;;;20.38;25.43;96225.16;5072303;28;20052;-72
2021/04/26 08:32:34;;;;;;;5.95;3.92;;;;;;;20.61;24.84;96233.22;5072620;28;20047;-71
2021/04/26 08:34:59;;;;;;;5.93;3.92;;;;;;;20.92;24.19;96231.81;5072755;28;20052;-72
2021/04/26 08:37:26;;;;;;;7.13;3.92;;;;;;;21.26;24.99;96224.06;5071663;28;20068;-72
2021/04/26 08:39:53;;;;;;;6.95;3.85;;;;;;;21.47;23.84;96218.63;5073113;28;20045;-72
2021/04/26 08:42:19;;;;;;;14.88;4.18;;;;;;;21.89;23.34;96222.66;5071603;28;20051;-72
2021/04/26 08:44:45;;;;;;;6.00;4.05;;;;;;;22.00;21.42;96217.91;5072849;28;20044;-72
2021/04/26 08:47:12;;;;;;;8.65;4.28;;;;;;;22.03;24.12;96222.66;5071640;28;20131;-71
2021/04/26 08:49:38;;;;;;;7.45;4.28;;;;;;;22.28;22.57;96216.31;5072216;28;20048;-71
2021/04/26 08:52:07;;;;;;;7.07;3.75;;;;;;;21.94;22.02;96213.94;5085991;28;20044;-71
2021/04/26 08:54:33;;;;;;;10.57;4.10;;;;;;;21.78;22.71;96213.53;5092284;28;20059;-72
2021/04/26 08:57:00;;;;;;;8.05;3.88;;;;;;;22.02;24.45;96214.72;5091870;28;20066;-72
2021/04/26 08:59:26;;;;;;;6.32;4.60;;;;;;;22.32;23.70;96217.91;5091515;28;20055;-72
2021/04/26 09:01:59;;;;;;;5.68;4.15;;;;;;;22.62;21.82;96216.69;5092847;28;20044;-72
2021/04/26 09:04:25;;;;;;;7.53;4.13;;;;;;;22.45;24.17;96214.72;5091171;28;20051;-71
2021/04/26 09:06:54;;;;;;;6.03;4.38;;;;;;;22.67;23.00;96211.50;5092942;28;20070;-72
2021/04/26 09:09:34;;;;;;;11.65;4.28;;;;;;;23.02;23.25;96215.41;5091460;28;20044;-72
2021/04/26 09:12:01;;;;;;;9.32;3.97;;;;;;;23.56;21.85;96215.16;5092450;28;20048;-72
2021/04/26 09:14:42;;;;;;;10.65;4.20;;;;;;;23.67;21.82;96205.56;5091784;28;20039;-72
2021/04/26 09:17:28;;;;;;;6.30;3.95;;;;;;;23.84;21.66;96208.63;5090797;28;20075;-71
2021/04/26 09:19:54;;;;;;;6.03;4.03;;;;;;;24.03;20.07;96194.19;5092369;28;20229;-73
2021/04/26 09:22:41;;;;;;;5.80;3.70;;;;;;;24.30;21.90;96204.69;5090802;28;20047;-72
2021/04/26 09:25:25;;;;;;;7.38;3.80;;;;;;;24.41;18.54;96202.63;5091277;28;20051;-71
2021/04/26 09:27:55;;;;;;;9.82;4.60;;;;;;;24.43;20.25;96200.22;5090640;28;20052;-72
2021/04/26 09:30:40;;;;;;;6.40;3.42;;;;;;;24.50;19.92;96196.59;5091672;28;20052;-72
2021/04/26 09:33:30;;;;;;;8.43;3.70;;;;;;;24.28;20.05;96193.19;5091692;28;20051;-71
2021/04/26 09:36:08;;;;;;;8.50;3.70;;;;;;;24.04;18.98;96183.84;5091025;28;20146;-72
2021/04/26 09:38:36;;;;;;;9.48;3.80;;;;;;;23.60;19.04;96193.69;5091498;28;20040;-72
2021/04/26 09:41:17;;;;;;;7.40;3.67;;;;;;;23.23;20.91;96177.59;5091072;28;20042;-71
2021/04/26 09:43:48;;;;;;;6.53;3.60;;;;;;;22.89;19.88;96181.72;5091005;28;20044;-72
2021/04/26 09:46:14;;;;;;;6.78;3.75;;;;;;;22.33;20.23;96185.41;5091482;28;20056;-72
2021/04/26 09:48:40;;;;;;;6.32;3.55;;;;;;;21.66;20.51;96186.19;5090545;28;20056;-71
2021/04/26 09:51:09;;;;;;;10.15;3.75;;;;;;;21.26;21.04;96196.38;5091411;28;20410;-71
2021/04/26 09:53:46;;;;;;;9.60;3.72;;;;;;;20.89;22.38;96183.59;5090702;28;20099;-71
2021/04/26 09:56:15;;;;;;;7.18;3.75;;;;;;;20.49;19.48;96188.13;5091270;28;20059;-71
2021/04/26 09:58:43;;;;;;;9.07;3.83;;;;;;;20.45;24.38;96176.22;5090404;28;20055;-72
2021/04/26 10:01:10;;;;;;;9.27;4.80;;;;;;;20.08;22.03;96179.94;5090716;28;20048;-72
2021/04/26 10:03:36;;;;;;;6.18;3.38;;;;;;;20.04;22.88;96173.56;5073176;28;20498;-72
2021/04/26 10:06:03;;;;;;;6.45;3.70;;;;;;;20.16;23.64;96174.47;5090273;28;20760;-71
2021/04/26 10:08:29;;;;;;;9.60;3.67;;;;;;;20.22;23.41;96178.44;5091429;28;20047;-71
2021/04/26 10:10:56;;;;;;;5.95;3.22;;;;;;;20.20;23.42;96166.97;5090444;28;20048;-72
2021/04/26 10:13:23;;;;;;;6.75;3.45;;;;;;;20.14;23.94;96171.28;5091196;28;20048;-72
2021/04/26 10:15:55;;;;;;;10.70;3.95;;;;;;;20.30;24.47;96174.53;5090617;28;20061;-72
2021/04/26 10:18:28;;;;;;;10.32;3.83;;;;;;;20.25;22.17;96177.66;5091094;28;20048;-72
2021/04/26 10:20:54;;;;;;;7.28;4.05;;;;;;;20.18;22.84;96172.09;5090599;28;20090;-72
2021/04/26 10:23:39;;;;;;;6.47;3.80;;;;;;;19.95;22.00;96184.19;5090163;28;20048;-72
2021/04/26 10:26:06;;;;;;;8.90;3.83;;;;;;;19.83;21.85;96162.34;5090612;28;20040;-71
2021/04/26 10:28:33;;;;;;;7.75;3.80;;;;;;;19.83;21.86;96162.34;5089021;28;20055;-72
2021/04/26 10:31:02;;;;;;;6.80;3.50;;;;;;;19.74;25.49;96153.63;5091208;28;20097;-72
2021/04/26 10:34:04;;;;;;;5.18;3.50;;;;;;;19.79;23.04;96159.59;5090004;28;20055;-72
2021/04/26 10:36:53;;;;;;;7.20;3.47;;;;;;;19.77;22.56;96150.88;5090540;28;20036;-72
2021/04/26 10:39:21;;;;;;;10.32;3.50;;;;;;;19.70;22.07;96152.78;5090296;28;20097;-73
2021/04/26 10:42:02;;;;;;;9.52;3.55;;;;;;;19.84;23.01;96147.38;5071967;28;20052;-75
2021/04/26 10:44:49;;;;;;;7.72;4.10;;;;;;;19.89;20.91;96147.03;5090998;28;20036;-72
2021/04/26 10:47:17;;;;;;;7.22;3.78;;;;;;;19.86;22.42;96138.72;5090125;28;20076;-71
2021/04/26 10:49:46;;;;;;;7.07;3.50;;;;;;;19.97;22.34;96145.88;5089837;28;20055;-71
2021/04/26 10:52:34;;;;;;;4.88;3.28;;;;;;;20.28;21.97;96139.00;5089984;28;20125;-70
2021/04/26 10:55:03;;;;;;;5.10;3.70;;;;;;;20.45;23.47;96142.22;5089894;28;20411;-70
2021/04/26 10:57:33;;;;;;;8.75;3.60;;;;;;;20.35;20.83;96132.69;5083712;28;20048;-71
2021/04/26 11:00:42;;;;;;;7.85;3.70;;;;;;;20.63;25.16;96125.75;5069591;28;20048;-71
2021/04/26 11:03:31;;;;;;;8.27;3.60;;;;;;;21.09;21.81;96112.88;5069909;28;20037;-71
2021/04/26 11:06:08;;;;;;;8.68;4.38;;;;;;;21.01;21.90;96108.50;5070341;28;20487;-71
2021/04/26 11:08:40;;;;;;;7.15;3.97;;;;;;;20.98;22.08;96114.00;5069493;28;20040;-72
2021/04/26 11:11:10;;;;;;;7.72;3.72;;;;;;;21.09;22.51;96104.56;5070258;28;20069;-72
2021/04/26 11:13:42;;;;;;;7.55;3.60;;;;;;;21.03;22.29;96110.84;5069263;28;20064;-71
2021/04/26 11:16:11;;;;;;;9.38;3.80;;;;;;;21.00;20.53;96095.84;5069892;28;20044;-70
2021/04/26 11:18:41;;;;;;;5.72;3.70;;;;;;;20.81;19.21;96105.25;5069778;28;20048;-71
2021/04/26 11:21:08;;;;;;;6.43;3.67;;;;;;;20.82;21.12;96106.06;5075389;28;20036;-70
2021/04/26 11:23:44;;;;;;;11.73;4.13;;;;;;;20.72;20.43;96098.50;5089956;28;20051;-71
2021/04/26 11:26:15;;;;;;;4.65;3.63;;;;;;;20.65;20.11;96096.50;5089442;28;20050;-70
2021/04/26 11:29:04;;;;;;;8.68;3.60;;;;;;;20.70;21.34;96093.38;5073047;28;20056;-71
2021/04/26 11:32:03;;;;;;;7.15;4.05;;;;;;;20.52;21.33;96098.06;5069371;28;20119;-71
2021/04/26 11:35:05;;;;;;;6.90;3.60;;;;;;;20.70;22.13;96092.59;5069195;28;20083;-71
2021/04/26 11:37:35;;;;;;;9.70;4.15;;;;;;;20.75;22.83;96093.00;5070353;28;20608;-71
2021/04/26 11:40:14;;;;;;;7.22;3.55;;;;;;;20.89;22.17;96075.66;5068921;28;20094;-71
2021/04/26 11:42:40;;;;;;;8.07;4.28;;;;;;;20.87;21.00;96078.00;5070383;28;20048;-71
2021/04/26 11:45:07;;;;;;;6.28;3.85;;;;;;;20.75;18.71;96076.41;5068921;28;20048;-71